Terminal Aerodrome Forecast
Issued by NWS Grand Forks, ND

Home | Current Version | Previous Version | Graphics & Text | Print | Product List | Glossary On
Versions: 1 2 3 4 5 6 7 8 9 10 11 12
828
FTUS43 KFGF 170520
TAFGFK
TAF
KGFK 170520Z 1706/1806 09005KT P6SM SKC
     FM171400 11009KT P6SM FEW200
     FM172300 08008KT P6SM BKN200=

USA.gov is the U.S. government's official web portal to all federal, state and local government web resources and services.